KFKR

Frankfort Municipal Airport

Frankfort, Indiana, USA
METAR KFKR 181955Z AUTO 24015KT 10SM BKN016 BKN022 OVC043 10/06 A2997 RMK AO2 T01000057
Observed Flight Rules
Dec-18 @ 19:55 UTC (35 minutes ago) Marginal Visual Flight Rules
Wind Visibility Clouds
240° at 15 knots 10 miles
  • Broken at 1,600' AGL
  • Broken at 2,200' AGL
  • Overcast at 4,300' AGL
Temperatures Readings
Current 10°C / 50°F
Dewpoint 6°C / 43°F
Humidity 76%
Altimeter 29.97" Hg
Pressure 1015 hPa
Elevation 262
METAR KFKR 181955Z AUTO 24015KT 10SM BKN016 BKN022 OVC043 10/06 A2997 RMK AO2 T01000057
Observed Flight Rules
Dec-18 @ 19:55 UTC
(35 minutes ago)
MVFR
Wind Visibility
240° at 15 knots 10 miles
Clouds
  • Broken at 1,600' AGL
  • Broken at 2,200' AGL
  • Overcast at 4,300' AGL
Temperature Dewpoint
10°C / 50°F 6°C / 43°F
Humidity Altimeter Pressure
76% 29.97" Hg 1015 hPa